Time;durP1;ratioP1;P1;durP2;ratioP2;P2;SDS_P1;SDS_P2;PMS_P1;PMS_P2;Temp;Humidity;BMP_temperature;BMP_pressure;BME280_temperature;BME280_humidity;BME280_pressure;Samples;Min_cycle;Max_cycle;Signal;HPM_P1;HPM_P2
2021/12/18 00:01:39;;;;;;;20.38;16.70;;;5.80;99.90;;;;;;5022688;28;20213;-84
2021/12/18 00:04:06;;;;;;;21.40;16.77;;;5.90;99.90;;;;;;5026245;28;20251;-84
2021/12/18 00:06:33;;;;;;;21.55;17.15;;;5.90;99.90;;;;;;5027059;28;20217;-84
2021/12/18 00:09:00;;;;;;;18.85;15.85;;;5.90;99.90;;;;;;5025786;28;20226;-84
2021/12/18 00:11:28;;;;;;;22.80;16.55;;;5.90;99.90;;;;;;5025172;28;20245;-84
2021/12/18 00:13:56;;;;;;;17.58;15.68;;;5.90;99.90;;;;;;5007002;28;20733;-84
2021/12/18 00:16:23;;;;;;;19.17;16.77;;;5.90;99.90;;;;;;5013620;28;20199;-84
2021/12/18 00:18:52;;;;;;;19.58;15.88;;;5.90;99.90;;;;;;5026263;28;20207;-84
2021/12/18 00:21:20;;;;;;;24.83;17.55;;;5.90;99.90;;;;;;5024987;28;20238;-84
2021/12/18 00:23:47;;;;;;;20.08;16.05;;;5.90;99.90;;;;;;5024656;28;20206;-83
2021/12/18 00:26:13;;;;;;;19.25;15.65;;;5.90;99.90;;;;;;5024795;28;20206;-84
2021/12/18 00:28:40;;;;;;;24.85;17.73;;;5.90;99.90;;;;;;5014524;28;20223;-84
2021/12/18 00:31:08;;;;;;;20.45;14.75;;;5.80;99.90;;;;;;4999638;28;20712;-83
2021/12/18 00:33:35;;;;;;;21.50;16.63;;;5.70;99.90;;;;;;4999144;28;20215;-84
2021/12/18 00:36:15;;;;;;;24.90;16.58;;;5.70;99.90;;;;;;5000512;28;20203;-84
2021/12/18 00:38:42;;;;;;;21.48;16.58;;;5.60;99.90;;;;;;5000772;28;20215;-84
2021/12/18 00:41:27;;;;;;;22.88;17.35;;;5.60;99.90;;;;;;4999637;28;20368;-84
2021/12/18 00:44:04;;;;;;;20.75;17.15;;;5.60;99.90;;;;;;4999466;28;20212;-84
2021/12/18 00:46:34;;;;;;;20.98;16.23;;;5.60;99.90;;;;;;4999095;28;20211;-84
2021/12/18 00:49:02;;;;;;;24.40;17.45;;;5.60;99.90;;;;;;4999452;28;20231;-83
2021/12/18 00:51:29;;;;;;;17.85;15.50;;;5.50;99.90;;;;;;4998264;28;20292;-84
2021/12/18 00:53:55;;;;;;;20.95;18.67;;;5.40;99.90;;;;;;4998364;28;20731;-84
2021/12/18 00:56:23;;;;;;;21.30;15.32;;;5.40;99.90;;;;;;4998558;28;20208;-84
2021/12/18 00:58:50;;;;;;;23.75;17.70;;;5.40;99.90;;;;;;4999958;28;20576;-84
2021/12/18 01:01:19;;;;;;;18.05;15.82;;;5.40;99.90;;;;;;4997838;28;20214;-84
2021/12/18 01:03:48;;;;;;;18.95;14.32;;;5.40;99.90;;;;;;4998696;28;20211;-83
2021/12/18 01:06:15;;;;;;;19.88;16.80;;;5.40;99.90;;;;;;5014712;28;20210;-84
2021/12/18 01:08:41;;;;;;;21.10;15.55;;;5.40;99.90;;;;;;5018499;28;20662;-84
2021/12/18 01:11:30;;;;;;;23.77;15.35;;;5.40;99.90;;;;;;5018471;28;20232;-83
2021/12/18 01:14:13;;;;;;;21.42;15.63;;;5.30;99.90;;;;;;5001607;28;20226;-84
2021/12/18 01:16:48;;;;;;;15.80;14.18;;;5.30;99.90;;;;;;5018335;28;20626;-84
2021/12/18 01:24:44;;;;;;;18.42;15.43;;;5.20;99.90;;;;;;5011206;28;22032;-84
2021/12/18 01:27:11;;;;;;;22.42;15.48;;;5.30;99.90;;;;;;5014674;28;20257;-83
2021/12/18 01:29:38;;;;;;;21.15;14.63;;;5.30;99.90;;;;;;5014422;28;20231;-83
2021/12/18 01:32:05;;;;;;;17.17;15.05;;;5.20;99.90;;;;;;5014095;28;20587;-82
2021/12/18 01:34:33;;;;;;;21.67;15.82;;;5.10;99.90;;;;;;5014273;28;20207;-83
2021/12/18 01:37:00;;;;;;;22.33;17.00;;;5.10;99.90;;;;;;5014574;28;20210;-84
2021/12/18 01:39:27;;;;;;;22.15;16.10;;;5.10;99.90;;;;;;5014139;28;20229;-83
2021/12/18 01:42:12;;;;;;;20.83;15.85;;;5.00;99.90;;;;;;5003786;28;20214;-83
2021/12/18 01:44:55;;;;;;;22.00;16.38;;;5.00;99.90;;;;;;4994844;28;20241;-82
2021/12/18 01:53:10;;;;;;;21.15;15.07;;;5.00;99.90;;;;;;4972993;28;20207;-83
2021/12/18 01:55:39;;;;;;;23.20;15.73;;;5.00;99.90;;;;;;4985311;28;20302;-82
2021/12/18 01:58:07;;;;;;;19.27;15.90;;;5.00;99.90;;;;;;4994524;28;20212;-83
2021/12/18 02:00:37;;;;;;;19.60;16.50;;;5.00;99.90;;;;;;4994099;28;20235;-83
2021/12/18 02:03:05;;;;;;;26.45;19.77;;;5.00;99.90;;;;;;4994287;28;20218;-83
2021/12/18 02:05:33;;;;;;;21.45;17.15;;;5.00;99.90;;;;;;4994302;28;20230;-83
2021/12/18 02:08:00;;;;;;;21.27;15.05;;;5.00;99.90;;;;;;4994307;28;20203;-83
2021/12/18 02:10:30;;;;;;;20.90;16.48;;;5.00;99.90;;;;;;4993721;28;20242;-84
2021/12/18 02:13:04;;;;;;;22.15;17.52;;;5.00;99.90;;;;;;4994139;28;20616;-83
2021/12/18 02:21:12;;;;;;;27.42;19.55;;;4.90;99.90;;;;;;5013264;28;20679;-83
2021/12/18 02:23:39;;;;;;;24.67;19.02;;;4.90;99.90;;;;;;5013622;28;20203;-83
2021/12/18 02:26:07;;;;;;;25.00;20.02;;;4.90;99.90;;;;;;5011952;28;20222;-83
2021/12/18 02:28:34;;;;;;;24.25;16.05;;;4.90;99.90;;;;;;5013547;28;20577;-83
2021/12/18 02:31:02;;;;;;;22.40;18.05;;;4.90;99.90;;;;;;5017818;28;20221;-83
2021/12/18 02:33:29;;;;;;;23.77;16.65;;;4.90;99.90;;;;;;5017708;28;20203;-83
2021/12/18 02:35:58;;;;;;;19.55;16.00;;;4.80;99.90;;;;;;5016747;28;20203;-83
2021/12/18 02:38:32;;;;;;;19.75;15.32;;;4.80;99.90;;;;;;5017070;28;20222;-84
2021/12/18 02:41:08;;;;;;;18.60;14.73;;;4.70;99.90;;;;;;5015875;28;20238;-83
2021/12/18 02:43:40;;;;;;;17.52;14.68;;;4.60;99.90;;;;;;5018072;28;20285;-84
2021/12/18 02:46:17;;;;;;;21.17;15.85;;;4.50;99.90;;;;;;5015907;28;20230;-84
2021/12/18 02:48:43;;;;;;;24.58;15.98;;;4.50;99.90;;;;;;5019336;28;20267;-84
2021/12/18 02:51:12;;;;;;;24.17;16.75;;;4.40;99.90;;;;;;5018032;28;20585;-83
2021/12/18 02:53:43;;;;;;;21.02;17.15;;;4.40;99.90;;;;;;5019124;28;20203;-84
2021/12/18 02:56:11;;;;;;;23.35;14.93;;;4.40;99.90;;;;;;5019081;28;20212;-84
2021/12/18 02:58:40;;;;;;;28.02;14.90;;;4.50;99.90;;;;;;5018967;28;20214;-83
2021/12/18 03:01:09;;;;;;;23.35;17.65;;;4.50;99.90;;;;;;5019013;28;20297;-83
2021/12/18 03:03:39;;;;;;;22.42;17.48;;;4.50;99.90;;;;;;5003461;28;20210;-84
2021/12/18 03:06:20;;;;;;;21.60;16.45;;;4.50;99.90;;;;;;4999181;28;20314;-84
2021/12/18 03:08:54;;;;;;;23.80;16.30;;;4.50;99.90;;;;;;4999433;28;20614;-82
2021/12/18 03:24:59;;;;;;;26.08;19.02;;;4.60;99.90;;;;;;4986740;28;20250;-82
2021/12/18 03:27:27;;;;;;;24.60;16.98;;;4.50;99.90;;;;;;5002192;28;20211;-83
2021/12/18 03:29:55;;;;;;;26.65;17.33;;;4.40;99.90;;;;;;4999286;28;20239;-84
2021/12/18 03:32:22;;;;;;;29.05;15.85;;;4.40;99.90;;;;;;5000058;28;20239;-83
2021/12/18 03:34:49;;;;;;;21.45;14.70;;;4.40;99.90;;;;;;4999294;28;20204;-84
2021/12/18 03:37:16;;;;;;;21.75;15.45;;;4.40;99.90;;;;;;5002046;28;20229;-84
2021/12/18 03:39:43;;;;;;;26.00;17.05;;;4.40;99.90;;;;;;5015569;28;20240;-84
2021/12/18 03:42:11;;;;;;;24.63;17.58;;;4.40;99.90;;;;;;5023240;28;20203;-84
2021/12/18 03:44:39;;;;;;;22.65;15.80;;;4.40;99.90;;;;;;5024792;28;20214;-84
2021/12/18 03:47:07;;;;;;;21.63;17.65;;;4.30;99.90;;;;;;5022760;28;20228;-83
2021/12/18 03:49:34;;;;;;;29.27;18.13;;;4.20;99.90;;;;;;5021880;28;20224;-84
2021/12/18 03:52:01;;;;;;;26.67;16.63;;;4.20;99.90;;;;;;5022105;28;20212;-85
2021/12/18 03:54:28;;;;;;;24.27;16.15;;;4.10;99.90;;;;;;5022979;28;20208;-83
2021/12/18 03:56:55;;;;;;;22.77;16.38;;;4.10;99.90;;;;;;5021841;28;20215;-84
2021/12/18 03:59:23;;;;;;;25.98;17.20;;;4.00;99.90;;;;;;5022168;28;20227;-84
2021/12/18 04:01:50;;;;;;;21.73;15.20;;;4.10;99.90;;;;;;5021497;28;20219;-83
2021/12/18 04:04:17;;;;;;;24.05;15.13;;;4.10;99.90;;;;;;5022366;28;20546;-83
2021/12/18 04:06:44;;;;;;;20.90;15.48;;;4.10;99.90;;;;;;5021733;28;20237;-82
2021/12/18 04:09:12;;;;;;;22.08;16.77;;;4.20;99.90;;;;;;5021983;28;20231;-82
2021/12/18 04:11:39;;;;;;;20.42;15.68;;;4.20;99.90;;;;;;5021537;28;20211;-83
2021/12/18 04:14:06;;;;;;;25.35;16.85;;;4.20;99.90;;;;;;5021559;28;20214;-83
2021/12/18 04:16:35;;;;;;;28.55;17.58;;;4.30;99.90;;;;;;5004749;28;20579;-82
2021/12/18 04:19:02;;;;;;;19.95;14.90;;;4.20;99.90;;;;;;5002374;28;20322;-83
2021/12/18 04:21:29;;;;;;;22.95;15.90;;;4.10;99.90;;;;;;5003208;28;20210;-82
2021/12/18 04:23:56;;;;;;;24.20;13.30;;;4.00;99.90;;;;;;5002238;28;20207;-82
2021/12/18 04:26:22;;;;;;;21.75;14.70;;;3.80;99.90;;;;;;5000835;28;20231;-81
2021/12/18 04:28:49;;;;;;;22.48;15.20;;;3.80;99.90;;;;;;5001392;28;20216;-81
2021/12/18 04:31:16;;;;;;;25.67;15.50;;;3.70;99.90;;;;;;5000574;28;20219;-81
2021/12/18 04:33:45;;;;;;;24.15;15.45;;;3.80;99.90;;;;;;5001177;28;20210;-81
2021/12/18 04:36:11;;;;;;;27.33;16.70;;;3.70;99.90;;;;;;5000212;28;20604;-81
2021/12/18 04:38:38;;;;;;;23.60;16.27;;;3.70;99.90;;;;;;5001306;28;20214;-81
2021/12/18 04:41:06;;;;;;;25.33;17.15;;;3.70;99.90;;;;;;5000635;28;20216;-81
2021/12/18 04:43:33;;;;;;;19.80;13.70;;;3.60;99.90;;;;;;5005033;28;20275;-81
2021/12/18 04:45:59;;;;;;;23.63;15.27;;;3.60;99.90;;;;;;5003302;28;20229;-84
2021/12/18 04:48:26;;;;;;;20.58;15.27;;;3.50;99.90;;;;;;4999707;28;20207;-84
2021/12/18 04:50:54;;;;;;;25.02;17.10;;;3.50;99.90;;;;;;5000279;28;20744;-84
2021/12/18 04:53:21;;;;;;;18.95;12.85;;;3.50;99.90;;;;;;5003024;28;20218;-83
2021/12/18 04:55:49;;;;;;;19.52;13.98;;;3.50;99.90;;;;;;5006853;28;20205;-84
2021/12/18 04:58:16;;;;;;;24.95;15.23;;;3.50;99.90;;;;;;5022453;28;20203;-84
2021/12/18 05:00:46;;;;;;;18.90;14.40;;;3.60;99.90;;;;;;5019648;28;20218;-84
2021/12/18 05:03:15;;;;;;;19.88;16.52;;;3.50;99.90;;;;;;5020185;28;20197;-84
2021/12/18 05:05:42;;;;;;;20.85;14.35;;;3.50;99.90;;;;;;5019478;28;20225;-84
2021/12/18 05:08:11;;;;;;;22.55;16.13;;;3.40;99.90;;;;;;5020437;28;20213;-82
2021/12/18 05:10:38;;;;;;;23.17;15.88;;;3.40;99.90;;;;;;5019940;28;20232;-81
2021/12/18 05:13:04;;;;;;;23.75;15.77;;;3.40;99.90;;;;;;5020374;28;20215;-81
2021/12/18 05:15:32;;;;;;;22.70;15.27;;;3.40;99.90;;;;;;5020439;28;20207;-81
2021/12/18 05:17:59;;;;;;;22.55;15.80;;;3.50;99.90;;;;;;5020100;28;20640;-81
2021/12/18 05:20:25;;;;;;;20.98;15.48;;;3.50;99.90;;;;;;5024685;28;20233;-81
2021/12/18 05:22:52;;;;;;;19.10;14.23;;;3.60;99.90;;;;;;5024047;28;20214;-81
2021/12/18 05:25:20;;;;;;;20.90;14.80;;;3.60;99.90;;;;;;5020038;28;20632;-81
2021/12/18 05:27:47;;;;;;;22.15;14.00;;;3.60;99.90;;;;;;5020020;28;20217;-81
2021/12/18 05:30:14;;;;;;;18.42;12.80;;;3.70;99.90;;;;;;5019162;28;20230;-81
2021/12/18 05:32:40;;;;;;;15.55;11.82;;;3.60;99.90;;;;;;5019536;28;20211;-81
2021/12/18 05:35:08;;;;;;;21.65;14.82;;;3.60;99.90;;;;;;5020032;28;20213;-81
2021/12/18 05:37:47;;;;;;;25.40;16.00;;;3.40;99.90;;;;;;5018984;28;20213;-81
2021/12/18 05:40:16;;;;;;;20.20;13.43;;;3.50;99.90;;;;;;5019159;28;20237;-81
2021/12/18 05:42:45;;;;;;;19.40;12.45;;;3.50;99.90;;;;;;5019366;28;20207;-81
2021/12/18 05:45:12;;;;;;;19.25;14.23;;;3.50;99.90;;;;;;5018826;28;20207;-81
2021/12/18 05:47:39;;;;;;;21.92;13.48;;;3.40;99.90;;;;;;5019107;28;20221;-81
2021/12/18 05:50:07;;;;;;;18.85;13.90;;;3.30;99.90;;;;;;5018781;28;20236;-81
2021/12/18 05:52:34;;;;;;;23.02;14.05;;;3.30;99.90;;;;;;5019314;28;20204;-81
2021/12/18 05:55:00;;;;;;;18.23;13.85;;;3.30;99.90;;;;;;5018816;28;20222;-81
2021/12/18 05:57:27;;;;;;;27.70;15.82;;;3.30;99.90;;;;;;5018802;28;20206;-81
2021/12/18 05:59:55;;;;;;;22.63;15.40;;;3.40;99.90;;;;;;5017962;28;20244;-83
2021/12/18 06:02:22;;;;;;;20.90;16.33;;;3.40;99.90;;;;;;5014160;28;20210;-82
2021/12/18 06:04:49;;;;;;;19.92;13.57;;;3.40;99.90;;;;;;4999025;28;20221;-83
2021/12/18 06:07:28;;;;;;;22.25;14.48;;;3.50;99.90;;;;;;4999419;28;20600;-82
2021/12/18 06:09:55;;;;;;;16.55;13.68;;;3.50;99.90;;;;;;4998969;28;20237;-82
2021/12/18 06:12:22;;;;;;;24.23;13.85;;;3.50;99.90;;;;;;5011149;28;20209;-82
2021/12/18 06:14:49;;;;;;;17.92;11.55;;;3.50;99.90;;;;;;5018736;28;20750;-82
2021/12/18 06:17:17;;;;;;;20.90;15.07;;;3.50;99.90;;;;;;5018510;28;20236;-82
2021/12/18 06:19:44;;;;;;;20.73;14.52;;;3.40;99.90;;;;;;5018430;28;20319;-82
2021/12/18 06:22:10;;;;;;;18.88;13.90;;;3.50;99.90;;;;;;5018541;28;20207;-82
2021/12/18 06:24:37;;;;;;;20.17;13.95;;;3.50;99.90;;;;;;5018934;28;20206;-82
2021/12/18 06:27:04;;;;;;;27.70;16.60;;;3.60;99.90;;;;;;5017815;28;20227;-83
2021/12/18 06:29:31;;;;;;;19.77;13.35;;;3.60;99.90;;;;;;5018373;28;20231;-82
2021/12/18 06:31:58;;;;;;;20.58;14.38;;;3.60;99.90;;;;;;5018652;28;20207;-82
2021/12/18 06:34:26;;;;;;;20.15;12.90;;;3.60;99.90;;;;;;5018465;28;20209;-82
2021/12/18 06:36:53;;;;;;;20.27;13.45;;;3.50;99.90;;;;;;5019183;28;20204;-82
2021/12/18 06:39:20;;;;;;;15.70;12.52;;;3.60;99.90;;;;;;5018581;28;20231;-82
2021/12/18 06:41:48;;;;;;;16.23;12.52;;;3.60;99.90;;;;;;5018349;28;20210;-82
2021/12/18 06:44:15;;;;;;;24.52;14.82;;;3.60;99.90;;;;;;5017953;28;20223;-82
2021/12/18 06:46:42;;;;;;;18.27;14.82;;;3.50;99.90;;;;;;5018037;28;20231;-83
2021/12/18 06:49:10;;;;;;;20.48;12.85;;;3.50;99.90;;;;;;5018067;28;20228;-82
2021/12/18 06:51:38;;;;;;;17.25;11.88;;;3.50;99.90;;;;;;5017749;28;20257;-82
2021/12/18 06:54:05;;;;;;;15.63;13.00;;;3.50;99.90;;;;;;5018402;28;20585;-83
2021/12/18 06:56:32;;;;;;;21.52;13.00;;;3.50;99.90;;;;;;5020251;28;20209;-84
2021/12/18 06:58:58;;;;;;;17.80;12.60;;;3.50;99.90;;;;;;5019959;28;20231;-83
2021/12/18 07:01:25;;;;;;;20.60;12.45;;;3.60;99.90;;;;;;5021296;28;20585;-84
2021/12/18 07:03:52;;;;;;;20.77;13.43;;;3.60;99.90;;;;;;5020378;28;20703;-82
2021/12/18 07:06:19;;;;;;;21.67;14.45;;;3.60;99.90;;;;;;5021027;28;20241;-82
2021/12/18 07:08:47;;;;;;;21.27;12.35;;;3.60;99.90;;;;;;5020763;28;20218;-83
2021/12/18 07:11:14;;;;;;;17.38;11.73;;;3.50;99.90;;;;;;5020657;28;20264;-84
2021/12/18 07:13:40;;;;;;;19.02;12.68;;;3.40;99.90;;;;;;5019970;28;20221;-82
2021/12/18 07:16:07;;;;;;;13.88;10.93;;;3.60;99.90;;;;;;5020093;28;20203;-83
2021/12/18 07:18:34;;;;;;;17.20;13.05;;;3.60;99.90;;;;;;5019955;28;20212;-83
2021/12/18 07:21:01;;;;;;;20.35;12.65;;;3.60;99.90;;;;;;5019738;28;20210;-83
2021/12/18 07:23:29;;;;;;;17.45;11.57;;;3.80;99.90;;;;;;5019611;28;20273;-82
2021/12/18 07:25:57;;;;;;;14.65;10.80;;;3.80;99.90;;;;;;5020371;28;20237;-83
2021/12/18 07:28:23;;;;;;;14.50;12.80;;;3.90;99.90;;;;;;5020983;28;20669;-84
2021/12/18 07:30:50;;;;;;;16.63;11.68;;;3.90;99.90;;;;;;5020174;28;20235;-83
2021/12/18 07:33:17;;;;;;;17.42;12.68;;;3.90;99.90;;;;;;5017131;28;20213;-83
2021/12/18 07:35:44;;;;;;;16.70;11.48;;;3.90;99.90;;;;;;5000359;28;20208;-84
2021/12/18 07:38:11;;;;;;;13.27;9.55;;;3.90;99.90;;;;;;4999585;28;20212;-85
2021/12/18 07:40:38;;;;;;;15.52;11.45;;;3.90;99.90;;;;;;5000530;28;20230;-84
2021/12/18 07:43:06;;;;;;;17.33;10.50;;;3.90;99.90;;;;;;4999369;28;20221;-83
2021/12/18 07:45:34;;;;;;;13.70;11.15;;;3.90;99.90;;;;;;5003413;28;20203;-85
2021/12/18 07:48:01;;;;;;;18.48;10.80;;;4.00;99.90;;;;;;5019263;28;20600;-83
2021/12/18 07:50:28;;;;;;;18.00;11.57;;;4.00;99.90;;;;;;5017978;28;20238;-84
2021/12/18 07:52:55;;;;;;;17.25;14.32;;;4.10;99.90;;;;;;5019980;28;20203;-83
2021/12/18 07:55:25;;;;;;;15.18;10.48;;;4.10;99.90;;;;;;5020417;28;20215;-82
2021/12/18 07:57:54;;;;;;;15.90;10.60;;;4.20;99.90;;;;;;5020706;28;20210;-83
2021/12/18 08:00:23;;;;;;;17.95;11.63;;;4.20;99.90;;;;;;5021201;28;20236;-83
2021/12/18 08:02:50;;;;;;;14.73;10.82;;;4.00;99.90;;;;;;5019726;28;20207;-82
2021/12/18 08:05:20;;;;;;;17.55;11.55;;;3.90;99.90;;;;;;5019967;28;20210;-83
2021/12/18 08:07:46;;;;;;;17.52;12.90;;;3.90;99.90;;;;;;5018047;28;20611;-81
2021/12/18 08:10:14;;;;;;;18.05;12.80;;;4.10;99.90;;;;;;5017975;28;20601;-82
2021/12/18 08:12:41;;;;;;;17.67;10.65;;;4.20;99.90;;;;;;5017380;28;20562;-81
2021/12/18 08:15:08;;;;;;;18.23;11.65;;;4.20;99.90;;;;;;5018043;28;20211;-82
2021/12/18 08:17:37;;;;;;;18.83;11.93;;;4.20;99.90;;;;;;5016788;28;20203;-82
2021/12/18 08:20:05;;;;;;;18.10;12.55;;;4.30;99.90;;;;;;5004176;28;20234;-82
2021/12/18 08:22:31;;;;;;;15.73;12.07;;;4.40;99.90;;;;;;5004393;28;20199;-82
2021/12/18 08:24:58;;;;;;;16.40;9.90;;;4.30;99.90;;;;;;5009257;28;20207;-81
2021/12/18 08:27:25;;;;;;;23.60;15.88;;;4.10;99.90;;;;;;5010554;28;20218;-82
2021/12/18 08:29:52;;;;;;;20.33;13.57;;;4.20;99.90;;;;;;5009776;28;20279;-82
2021/12/18 08:32:19;;;;;;;17.92;12.40;;;4.10;99.90;;;;;;5010131;28;20214;-81
2021/12/18 08:34:47;;;;;;;19.00;13.68;;;4.10;99.90;;;;;;5009341;28;20208;-82
2021/12/18 08:37:14;;;;;;;15.25;12.00;;;4.20;99.90;;;;;;5009640;28;20203;-82
2021/12/18 08:39:41;;;;;;;11.73;9.80;;;4.30;99.90;;;;;;5007825;28;20224;-82
2021/12/18 08:42:08;;;;;;;12.55;8.93;;;4.40;99.90;;;;;;5009039;28;20228;-82
2021/12/18 08:44:36;;;;;;;14.90;10.60;;;4.40;99.90;;;;;;5007714;28;20714;-82
2021/12/18 08:47:03;;;;;;;15.05;9.65;;;4.40;99.90;;;;;;5005936;28;20224;-82
2021/12/18 08:49:30;;;;;;;14.88;9.98;;;4.40;99.90;;;;;;5005162;28;20224;-80
2021/12/18 08:51:58;;;;;;;17.92;12.07;;;4.40;99.90;;;;;;5032819;28;20190;-80
2021/12/18 08:54:25;;;;;;;12.82;10.77;;;4.30;99.90;;;;;;5040000;28;20190;-80
2021/12/18 08:56:51;;;;;;;14.93;11.02;;;4.20;99.90;;;;;;5027885;28;20217;-81
2021/12/18 08:59:18;;;;;;;11.90;9.32;;;4.10;99.90;;;;;;5020180;28;20228;-79
2021/12/18 09:01:45;;;;;;;15.77;11.18;;;4.10;99.90;;;;;;5016599;28;20243;-79
2021/12/18 09:04:12;;;;;;;17.55;12.60;;;4.10;99.90;;;;;;5005718;28;20448;-80
2021/12/18 09:06:38;;;;;;;17.10;12.50;;;4.20;99.90;;;;;;5009026;28;20218;-81
2021/12/18 09:09:07;;;;;;;16.80;11.05;;;4.30;99.90;;;;;;5007582;28;20219;-79
2021/12/18 09:11:36;;;;;;;14.60;11.30;;;4.40;99.90;;;;;;5013359;28;20207;-79
2021/12/18 09:14:03;;;;;;;20.60;13.88;;;4.60;99.90;;;;;;5008767;28;20670;-80
2021/12/18 09:16:30;;;;;;;17.38;12.80;;;4.60;99.90;;;;;;5014031;28;20242;-80
2021/12/18 09:18:57;;;;;;;13.60;9.93;;;4.70;99.90;;;;;;5007824;28;20700;-81
2021/12/18 09:21:24;;;;;;;16.58;11.10;;;4.80;99.90;;;;;;5007654;28;20203;-80
2021/12/18 09:23:51;;;;;;;15.73;9.88;;;4.80;99.90;;;;;;5007965;28;20207;-80
2021/12/18 09:26:19;;;;;;;16.05;10.70;;;4.90;99.90;;;;;;5010665;28;20661;-81
2021/12/18 09:28:46;;;;;;;17.73;11.40;;;4.80;99.90;;;;;;5010298;28;20373;-81
2021/12/18 09:31:13;;;;;;;14.10;10.45;;;4.80;99.90;;;;;;5010552;28;20222;-81
2021/12/18 09:33:40;;;;;;;13.75;12.00;;;4.80;99.90;;;;;;5014503;28;20202;-81
2021/12/18 09:36:07;;;;;;;18.05;12.10;;;4.80;99.90;;;;;;5024662;28;20210;-81
2021/12/18 09:38:34;;;;;;;17.63;12.63;;;4.80;99.90;;;;;;5017240;28;20199;-81
2021/12/18 09:41:01;;;;;;;18.33;12.95;;;4.80;99.90;;;;;;5008491;28;20542;-81
2021/12/18 09:43:30;;;;;;;13.35;11.60;;;4.80;99.90;;;;;;5018180;28;20210;-83
2021/12/18 09:46:02;;;;;;;22.42;12.50;;;4.90;99.90;;;;;;5015846;28;20211;-82
2021/12/18 09:48:30;;;;;;;19.10;11.60;;;5.00;99.90;;;;;;5017889;28;20236;-82
2021/12/18 09:50:58;;;;;;;15.02;12.05;;;5.10;99.90;;;;;;5017589;28;20231;-82
2021/12/18 09:53:26;;;;;;;15.75;12.98;;;5.10;99.90;;;;;;5016723;28;20199;-82
2021/12/18 09:55:53;;;;;;;15.77;12.07;;;5.00;99.90;;;;;;5017822;28;20218;-82
2021/12/18 09:58:20;;;;;;;16.05;12.20;;;5.00;99.90;;;;;;5017591;28;20230;-81
2021/12/18 10:00:49;;;;;;;14.00;11.73;;;4.90;99.90;;;;;;5253166;22;20229;-82
2021/12/18 10:03:15;;;;;;;16.60;11.95;;;4.80;99.90;;;;;;5039387;28;20587;-81
2021/12/18 10:05:42;;;;;;;14.43;11.07;;;4.80;99.90;;;;;;5038736;28;20668;-81
2021/12/18 10:08:15;;;;;;;16.02;11.70;;;4.80;99.90;;;;;;5039820;28;20234;-81
2021/12/18 10:11:01;;;;;;;16.35;10.32;;;4.80;99.90;;;;;;5039290;28;20229;-84
2021/12/18 10:13:28;;;;;;;17.65;11.50;;;4.80;99.90;;;;;;5045588;28;20216;-83
2021/12/18 10:16:10;;;;;;;14.32;10.95;;;5.00;99.90;;;;;;5045912;28;20218;-84
2021/12/18 10:18:37;;;;;;;15.32;11.20;;;5.10;99.90;;;;;;5040331;28;20190;-85
2021/12/18 10:21:14;;;;;;;12.00;10.77;;;5.20;99.90;;;;;;5039208;28;20202;-82
2021/12/18 10:23:42;;;;;;;18.83;11.55;;;5.20;99.90;;;;;;5038612;28;20204;-83
2021/12/18 10:26:08;;;;;;;13.05;11.45;;;5.20;99.90;;;;;;5044349;28;20210;-83
2021/12/18 10:31:42;;;;;;;12.25;9.85;;;5.30;99.90;;;;;;5251638;22;20236;-83
2021/12/18 10:34:20;;;;;;;14.98;9.27;;;5.30;99.90;;;;;;5050840;28;20208;-83
2021/12/18 10:37:16;;;;;;;12.45;10.25;;;5.40;99.90;;;;;;5050768;28;20213;-84
2021/12/18 10:39:45;;;;;;;13.13;10.27;;;5.50;99.90;;;;;;5049915;28;20232;-83
2021/12/18 10:42:20;;;;;;;11.88;10.00;;;5.60;99.90;;;;;;5050156;28;20198;-85
2021/12/18 10:44:58;;;;;;;10.93;9.35;;;5.60;99.90;;;;;;5050293;28;20202;-84
2021/12/18 10:47:27;;;;;;;10.90;9.30;;;5.70;99.90;;;;;;5041123;28;20214;-84
2021/12/18 10:49:54;;;;;;;12.43;9.63;;;5.80;99.90;;;;;;5038771;28;20601;-83
2021/12/18 10:52:36;;;;;;;11.50;9.60;;;5.80;99.90;;;;;;5036291;28;20203;-83
2021/12/18 10:55:05;;;;;;;16.70;11.60;;;5.80;99.90;;;;;;5036772;28;20590;-84
2021/12/18 10:57:32;;;;;;;14.43;10.00;;;5.60;99.90;;;;;;5037423;28;20201;-82
2021/12/18 10:59:58;;;;;;;10.77;9.68;;;5.60;99.90;;;;;;5038135;28;20256;-81
2021/12/18 11:02:28;;;;;;;14.70;10.23;;;5.50;99.90;;;;;;5038196;28;20217;-82
2021/12/18 11:05:14;;;;;;;11.75;9.60;;;5.50;99.90;;;;;;5040734;28;20226;-83
2021/12/18 11:07:44;;;;;;;13.52;11.02;;;5.60;99.90;;;;;;5036630;28;20222;-82
2021/12/18 11:10:39;;;;;;;13.93;10.52;;;5.60;99.90;;;;;;5034456;28;20352;-81
2021/12/18 11:15:50;;;;;;;16.13;11.52;;;5.70;99.90;;;;;;5032994;28;20212;-84
2021/12/18 11:18:19;;;;;;;12.90;10.30;;;5.80;99.90;;;;;;5039911;28;20201;-85
2021/12/18 11:20:49;;;;;;;14.35;10.82;;;5.80;99.90;;;;;;5041290;28;20234;-85
2021/12/18 11:23:21;;;;;;;13.07;10.48;;;5.80;99.90;;;;;;5041039;28;20213;-85
2021/12/18 11:25:49;;;;;;;12.20;10.15;;;5.70;99.90;;;;;;5040915;28;20233;-86
2021/12/18 11:28:17;;;;;;;16.80;11.75;;;5.70;99.90;;;;;;5041299;28;20233;-86
2021/12/18 11:30:44;;;;;;;13.63;11.13;;;5.60;99.90;;;;;;5040442;28;20234;-84
2021/12/18 11:33:11;;;;;;;12.45;10.10;;;5.50;99.90;;;;;;5041361;28;20202;-82
2021/12/18 11:35:41;;;;;;;14.80;10.38;;;5.50;99.90;;;;;;5038331;28;20210;-82
2021/12/18 11:38:09;;;;;;;13.50;11.02;;;5.50;99.90;;;;;;5036869;28;20206;-84
2021/12/18 11:50:00;;;;;;;11.65;10.45;;;5.30;99.90;;;;;;4972955;28;20220;-83
2021/12/18 11:53:21;;;;;;;15.30;11.50;;;5.30;99.90;;;;;;4996052;28;20269;-83
2021/12/18 12:00:18;;;;;;;14.82;11.23;;;5.30;99.90;;;;;;5021897;28;20702;-83
2021/12/18 12:02:47;;;;;;;13.45;10.07;;;5.30;99.90;;;;;;5046215;28;20293;-81
2021/12/18 12:05:14;;;;;;;16.80;15.10;;;5.40;99.90;;;;;;5043299;28;20208;-81
2021/12/18 12:07:43;;;;;;;13.25;10.60;;;5.50;99.90;;;;;;5042451;28;20226;-81
2021/12/18 12:10:22;;;;;;;13.88;11.40;;;5.60;99.90;;;;;;5042469;28;20279;-81
2021/12/18 12:12:54;;;;;;;15.52;12.07;;;5.40;99.90;;;;;;5042866;28;20210;-81
2021/12/18 12:15:26;;;;;;;14.73;10.65;;;5.40;99.90;;;;;;5043740;28;20558;-81
2021/12/18 12:18:06;;;;;;;13.38;11.80;;;5.40;99.90;;;;;;5043578;28;20619;-81
2021/12/18 12:20:41;;;;;;;10.43;8.82;;;5.50;99.90;;;;;;5042701;28;20261;-81
2021/12/18 12:23:12;;;;;;;12.10;9.60;;;5.70;99.90;;;;;;5043322;28;20210;-81
2021/12/18 12:25:50;;;;;;;16.83;11.20;;;5.70;99.90;;;;;;5043237;28;20290;-81
2021/12/18 12:28:24;;;;;;;11.15;9.85;;;5.70;99.90;;;;;;5042802;28;20226;-81
2021/12/18 12:31:04;;;;;;;14.70;10.57;;;5.70;99.90;;;;;;5043028;28;20225;-81
2021/12/18 12:33:34;;;;;;;13.57;11.45;;;5.70;99.90;;;;;;5043315;28;20264;-81
2021/12/18 12:36:10;;;;;;;19.63;15.05;;;5.70;99.90;;;;;;5042826;28;20206;-81
2021/12/18 12:38:40;;;;;;;29.55;26.42;;;5.60;99.90;;;;;;5042969;28;20221;-81
2021/12/18 12:41:33;;;;;;;22.48;19.08;;;5.60;99.90;;;;;;5043318;28;20914;-81
2021/12/18 12:44:14;;;;;;;13.88;11.07;;;5.70;99.90;;;;;;5042027;28;20268;-81
2021/12/18 12:46:42;;;;;;;13.68;11.50;;;5.50;99.90;;;;;;5041897;28;20675;-82
2021/12/18 12:49:11;;;;;;;11.35;9.98;;;5.60;99.90;;;;;;5041408;28;20226;-81
2021/12/18 12:52:04;;;;;;;15.13;13.70;;;5.50;99.90;;;;;;5039171;28;20217;-81
2021/12/18 12:54:46;;;;;;;16.92;11.98;;;5.80;99.90;;;;;;5040018;28;20236;-81
2021/12/18 12:57:34;;;;;;;22.35;20.02;;;6.20;99.90;;;;;;5040966;28;20206;-81
2021/12/18 13:00:42;;;;;;;58.05;52.05;;;6.70;99.90;;;;;;5043215;28;20237;-81
2021/12/18 13:03:19;;;;;;;63.00;51.08;;;6.80;99.90;;;;;;4983324;28;20287;-81
2021/12/18 13:05:52;;;;;;;75.30;64.10;;;6.80;99.90;;;;;;5038150;28;20210;-81
2021/12/18 13:08:20;;;;;;;20.35;15.82;;;6.90;99.90;;;;;;5042841;28;20226;-81
2021/12/18 13:10:49;;;;;;;224.98;156.63;;;6.90;99.90;;;;;;5042009;28;20237;-79
2021/12/18 13:13:19;;;;;;;134.20;105.20;;;6.90;99.90;;;;;;5041198;28;20663;-80
2021/12/18 13:15:48;;;;;;;210.10;137.60;;;6.90;99.90;;;;;;5041190;28;20207;-80
2021/12/18 13:18:15;;;;;;;25.23;22.67;;;6.90;99.90;;;;;;5039980;28;20202;-80
2021/12/18 13:20:44;;;;;;;31.90;24.85;;;6.80;99.90;;;;;;5039068;28;20231;-80
2021/12/18 13:23:14;;;;;;;25.95;17.48;;;6.70;99.90;;;;;;5039844;28;20210;-80
2021/12/18 13:25:49;;;;;;;22.27;17.67;;;6.60;99.90;;;;;;5040136;28;20202;-80
2021/12/18 13:28:17;;;;;;;16.73;12.43;;;6.50;99.90;;;;;;5039881;28;20230;-80
2021/12/18 13:30:47;;;;;;;23.42;17.35;;;6.40;99.90;;;;;;5040721;28;20325;-79
2021/12/18 13:33:14;;;;;;;22.80;15.55;;;6.40;99.90;;;;;;5040321;28;20296;-80
2021/12/18 13:35:42;;;;;;;18.15;13.57;;;6.30;99.90;;;;;;5039567;28;20202;-80
2021/12/18 13:38:10;;;;;;;14.90;11.73;;;6.30;99.90;;;;;;5039534;28;20208;-79
2021/12/18 13:40:43;;;;;;;15.15;13.43;;;6.20;99.90;;;;;;5039062;28;20230;-80